sensor_id;sensor_type;location;lat;lon;timestamp;P1;durP1;ratioP1;P2;durP2;ratioP2
81396;SDS011;70852;49.908;8.126;2023-07-30T00:01:50;4.22;;;1.80;;
81396;SDS011;70852;49.908;8.126;2023-07-30T00:04:16;3.78;;;1.50;;
81396;SDS011;70852;49.908;8.126;2023-07-30T00:06:41;4.40;;;1.35;;
81396;SDS011;70852;49.908;8.126;2023-07-30T00:09:09;4.13;;;1.55;;
81396;SDS011;70852;49.908;8.126;2023-07-30T00:11:38;2.75;;;1.60;;
81396;SDS011;70852;49.908;8.126;2023-07-30T00:14:04;2.95;;;1.70;;
81396;SDS011;70852;49.908;8.126;2023-07-30T00:16:30;4.05;;;1.58;;
81396;SDS011;70852;49.908;8.126;2023-07-30T00:18:59;2.65;;;1.27;;
81396;SDS011;70852;49.908;8.126;2023-07-30T00:21:27;3.60;;;1.48;;
81396;SDS011;70852;49.908;8.126;2023-07-30T00:23:54;4.03;;;1.70;;
81396;SDS011;70852;49.908;8.126;2023-07-30T00:26:22;5.90;;;1.55;;
81396;SDS011;70852;49.908;8.126;2023-07-30T00:28:48;3.17;;;1.42;;
81396;SDS011;70852;49.908;8.126;2023-07-30T00:31:16;3.92;;;1.60;;
81396;SDS011;70852;49.908;8.126;2023-07-30T00:33:42;3.22;;;1.60;;
81396;SDS011;70852;49.908;8.126;2023-07-30T00:36:07;2.50;;;1.45;;
81396;SDS011;70852;49.908;8.126;2023-07-30T00:38:35;3.22;;;1.60;;
81396;SDS011;70852;49.908;8.126;2023-07-30T00:41:03;4.38;;;1.75;;
81396;SDS011;70852;49.908;8.126;2023-07-30T00:43:28;2.33;;;1.38;;
81396;SDS011;70852;49.908;8.126;2023-07-30T00:45:53;3.78;;;1.27;;
81396;SDS011;70852;49.908;8.126;2023-07-30T00:48:19;3.38;;;1.15;;
81396;SDS011;70852;49.908;8.126;2023-07-30T00:50:47;2.33;;;1.23;;
81396;SDS011;70852;49.908;8.126;2023-07-30T00:53:13;3.67;;;1.05;;
81396;SDS011;70852;49.908;8.126;2023-07-30T00:55:39;2.03;;;1.08;;
81396;SDS011;70852;49.908;8.126;2023-07-30T00:58:05;2.35;;;0.90;;
81396;SDS011;70852;49.908;8.126;2023-07-30T01:00:30;2.50;;;1.02;;
81396;SDS011;70852;49.908;8.126;2023-07-30T01:02:57;2.83;;;1.08;;
81396;SDS011;70852;49.908;8.126;2023-07-30T01:05:22;2.55;;;1.27;;
81396;SDS011;70852;49.908;8.126;2023-07-30T01:07:47;3.55;;;1.10;;
81396;SDS011;70852;49.908;8.126;2023-07-30T01:10:13;3.03;;;1.15;;
81396;SDS011;70852;49.908;8.126;2023-07-30T01:12:39;2.08;;;1.08;;
81396;SDS011;70852;49.908;8.126;2023-07-30T01:15:05;2.75;;;1.00;;
81396;SDS011;70852;49.908;8.126;2023-07-30T01:17:35;2.33;;;1.00;;
81396;SDS011;70852;49.908;8.126;2023-07-30T01:20:04;2.17;;;0.93;;
81396;SDS011;70852;49.908;8.126;2023-07-30T01:22:30;3.00;;;1.30;;
81396;SDS011;70852;49.908;8.126;2023-07-30T01:24:55;3.00;;;1.30;;
81396;SDS011;70852;49.908;8.126;2023-07-30T01:27:24;2.30;;;1.08;;
81396;SDS011;70852;49.908;8.126;2023-07-30T01:32:30;4.47;;;1.30;;
81396;SDS011;70852;49.908;8.126;2023-07-30T01:35:02;2.28;;;1.25;;
81396;SDS011;70852;49.908;8.126;2023-07-30T01:37:29;3.17;;;1.20;;
81396;SDS011;70852;49.908;8.126;2023-07-30T01:39:55;2.00;;;1.10;;
81396;SDS011;70852;49.908;8.126;2023-07-30T01:42:21;2.20;;;1.20;;
81396;SDS011;70852;49.908;8.126;2023-07-30T01:44:46;2.53;;;1.00;;
81396;SDS011;70852;49.908;8.126;2023-07-30T01:47:11;2.30;;;1.17;;
81396;SDS011;70852;49.908;8.126;2023-07-30T01:49:37;2.28;;;1.23;;
81396;SDS011;70852;49.908;8.126;2023-07-30T01:52:02;2.25;;;1.10;;
81396;SDS011;70852;49.908;8.126;2023-07-30T01:54:27;3.03;;;1.30;;
81396;SDS011;70852;49.908;8.126;2023-07-30T01:56:57;2.25;;;1.33;;
81396;SDS011;70852;49.908;8.126;2023-07-30T01:59:23;2.53;;;1.25;;
81396;SDS011;70852;49.908;8.126;2023-07-30T02:01:48;2.72;;;1.10;;
81396;SDS011;70852;49.908;8.126;2023-07-30T02:04:18;2.65;;;1.17;;
81396;SDS011;70852;49.908;8.126;2023-07-30T02:06:48;2.45;;;1.20;;
81396;SDS011;70852;49.908;8.126;2023-07-30T02:09:16;1.80;;;1.08;;
81396;SDS011;70852;49.908;8.126;2023-07-30T02:11:43;1.90;;;1.10;;
81396;SDS011;70852;49.908;8.126;2023-07-30T02:14:09;2.15;;;0.98;;
81396;SDS011;70852;49.908;8.126;2023-07-30T02:16:35;3.30;;;1.20;;
81396;SDS011;70852;49.908;8.126;2023-07-30T02:19:00;2.78;;;1.20;;
81396;SDS011;70852;49.908;8.126;2023-07-30T02:21:25;2.53;;;1.10;;
81396;SDS011;70852;49.908;8.126;2023-07-30T02:23:55;2.30;;;1.10;;
81396;SDS011;70852;49.908;8.126;2023-07-30T02:26:20;2.80;;;1.38;;
81396;SDS011;70852;49.908;8.126;2023-07-30T02:28:48;2.40;;;1.27;;
81396;SDS011;70852;49.908;8.126;2023-07-30T02:31:16;2.33;;;1.20;;
81396;SDS011;70852;49.908;8.126;2023-07-30T02:33:44;3.33;;;1.30;;
81396;SDS011;70852;49.908;8.126;2023-07-30T02:36:11;2.53;;;1.30;;
81396;SDS011;70852;49.908;8.126;2023-07-30T02:38:36;3.53;;;1.10;;
81396;SDS011;70852;49.908;8.126;2023-07-30T02:41:02;2.67;;;1.38;;
81396;SDS011;70852;49.908;8.126;2023-07-30T02:43:27;2.50;;;1.40;;
81396;SDS011;70852;49.908;8.126;2023-07-30T02:45:55;2.75;;;1.00;;
81396;SDS011;70852;49.908;8.126;2023-07-30T02:48:22;2.95;;;1.00;;
81396;SDS011;70852;49.908;8.126;2023-07-30T02:50:47;2.20;;;1.13;;
81396;SDS011;70852;49.908;8.126;2023-07-30T02:53:18;3.75;;;1.27;;
81396;SDS011;70852;49.908;8.126;2023-07-30T02:55:43;2.40;;;1.38;;
81396;SDS011;70852;49.908;8.126;2023-07-30T02:58:10;5.00;;;1.27;;
81396;SDS011;70852;49.908;8.126;2023-07-30T03:03:04;2.47;;;1.13;;
81396;SDS011;70852;49.908;8.126;2023-07-30T03:05:31;2.55;;;1.23;;
81396;SDS011;70852;49.908;8.126;2023-07-30T03:08:02;3.00;;;1.40;;
81396;SDS011;70852;49.908;8.126;2023-07-30T03:10:27;3.47;;;1.30;;
81396;SDS011;70852;49.908;8.126;2023-07-30T03:12:55;1.92;;;1.20;;
81396;SDS011;70852;49.908;8.126;2023-07-30T03:15:20;3.28;;;1.40;;
81396;SDS011;70852;49.908;8.126;2023-07-30T03:17:48;2.75;;;1.20;;
81396;SDS011;70852;49.908;8.126;2023-07-30T03:20:13;3.28;;;1.33;;
81396;SDS011;70852;49.908;8.126;2023-07-30T03:22:38;2.80;;;1.40;;
81396;SDS011;70852;49.908;8.126;2023-07-30T03:25:04;3.15;;;1.20;;
81396;SDS011;70852;49.908;8.126;2023-07-30T03:27:32;2.25;;;1.20;;
81396;SDS011;70852;49.908;8.126;2023-07-30T03:29:57;2.25;;;1.27;;
81396;SDS011;70852;49.908;8.126;2023-07-30T03:32:27;3.05;;;1.35;;
81396;SDS011;70852;49.908;8.126;2023-07-30T03:34:52;3.00;;;1.35;;
81396;SDS011;70852;49.908;8.126;2023-07-30T03:37:18;2.67;;;1.20;;
81396;SDS011;70852;49.908;8.126;2023-07-30T03:39:43;5.32;;;1.60;;
81396;SDS011;70852;49.908;8.126;2023-07-30T03:42:11;2.30;;;1.27;;
81396;SDS011;70852;49.908;8.126;2023-07-30T03:44:39;3.95;;;1.33;;
81396;SDS011;70852;49.908;8.126;2023-07-30T03:47:04;2.50;;;1.27;;
81396;SDS011;70852;49.908;8.126;2023-07-30T03:49:32;2.47;;;1.40;;
81396;SDS011;70852;49.908;8.126;2023-07-30T03:51:57;5.18;;;1.23;;
81396;SDS011;70852;49.908;8.126;2023-07-30T03:54:22;4.45;;;1.40;;
81396;SDS011;70852;49.908;8.126;2023-07-30T03:56:50;3.75;;;1.30;;
81396;SDS011;70852;49.908;8.126;2023-07-30T03:59:15;3.63;;;1.40;;
81396;SDS011;70852;49.908;8.126;2023-07-30T04:01:45;3.15;;;1.25;;
81396;SDS011;70852;49.908;8.126;2023-07-30T04:04:11;3.03;;;1.20;;
81396;SDS011;70852;49.908;8.126;2023-07-30T04:06:38;4.07;;;1.58;;
81396;SDS011;70852;49.908;8.126;2023-07-30T04:09:06;2.85;;;1.27;;
81396;SDS011;70852;49.908;8.126;2023-07-30T04:11:34;2.22;;;1.30;;
81396;SDS011;70852;49.908;8.126;2023-07-30T04:14:02;2.63;;;1.23;;
81396;SDS011;70852;49.908;8.126;2023-07-30T04:16:29;2.78;;;1.33;;
81396;SDS011;70852;49.908;8.126;2023-07-30T04:18:57;2.40;;;1.20;;
81396;SDS011;70852;49.908;8.126;2023-07-30T04:21:23;2.63;;;1.27;;
81396;SDS011;70852;49.908;8.126;2023-07-30T04:23:50;3.63;;;1.50;;
81396;SDS011;70852;49.908;8.126;2023-07-30T04:26:16;2.85;;;1.20;;
81396;SDS011;70852;49.908;8.126;2023-07-30T04:28:42;5.03;;;1.60;;
81396;SDS011;70852;49.908;8.126;2023-07-30T04:31:11;2.92;;;1.30;;
81396;SDS011;70852;49.908;8.126;2023-07-30T04:33:42;2.60;;;1.38;;
81396;SDS011;70852;49.908;8.126;2023-07-30T04:36:09;2.80;;;1.50;;
81396;SDS011;70852;49.908;8.126;2023-07-30T04:38:35;2.28;;;1.30;;
81396;SDS011;70852;49.908;8.126;2023-07-30T04:41:01;4.32;;;1.75;;
81396;SDS011;70852;49.908;8.126;2023-07-30T04:43:32;2.78;;;1.30;;
81396;SDS011;70852;49.908;8.126;2023-07-30T04:45:59;3.47;;;1.33;;
81396;SDS011;70852;49.908;8.126;2023-07-30T04:48:27;3.00;;;1.50;;
81396;SDS011;70852;49.908;8.126;2023-07-30T04:50:52;2.70;;;1.40;;
81396;SDS011;70852;49.908;8.126;2023-07-30T04:53:18;3.05;;;1.60;;
81396;SDS011;70852;49.908;8.126;2023-07-30T04:55:45;2.28;;;1.30;;
81396;SDS011;70852;49.908;8.126;2023-07-30T04:58:10;2.42;;;1.40;;
81396;SDS011;70852;49.908;8.126;2023-07-30T05:00:38;3.08;;;1.23;;
81396;SDS011;70852;49.908;8.126;2023-07-30T05:03:04;3.58;;;1.30;;
81396;SDS011;70852;49.908;8.126;2023-07-30T05:05:35;2.50;;;1.30;;
81396;SDS011;70852;49.908;8.126;2023-07-30T05:08:02;4.22;;;1.60;;
81396;SDS011;70852;49.908;8.126;2023-07-30T05:10:28;2.28;;;1.33;;
81396;SDS011;70852;49.908;8.126;2023-07-30T05:12:53;3.15;;;1.40;;
81396;SDS011;70852;49.908;8.126;2023-07-30T05:15:21;3.58;;;1.50;;
81396;SDS011;70852;49.908;8.126;2023-07-30T05:17:47;2.60;;;1.60;;
81396;SDS011;70852;49.908;8.126;2023-07-30T05:20:14;2.85;;;1.33;;
81396;SDS011;70852;49.908;8.126;2023-07-30T05:22:39;2.75;;;1.40;;
81396;SDS011;70852;49.908;8.126;2023-07-30T05:25:05;2.75;;;1.33;;
81396;SDS011;70852;49.908;8.126;2023-07-30T05:27:33;2.95;;;1.42;;
81396;SDS011;70852;49.908;8.126;2023-07-30T05:29:58;3.13;;;1.23;;
81396;SDS011;70852;49.908;8.126;2023-07-30T05:32:23;5.82;;;1.60;;
81396;SDS011;70852;49.908;8.126;2023-07-30T05:34:50;3.65;;;1.55;;
81396;SDS011;70852;49.908;8.126;2023-07-30T05:37:15;3.92;;;1.60;;
81396;SDS011;70852;49.908;8.126;2023-07-30T05:39:49;3.63;;;1.27;;
81396;SDS011;70852;49.908;8.126;2023-07-30T05:42:15;3.28;;;1.40;;
81396;SDS011;70852;49.908;8.126;2023-07-30T05:44:42;2.85;;;1.50;;
81396;SDS011;70852;49.908;8.126;2023-07-30T05:47:15;3.10;;;1.55;;
81396;SDS011;70852;49.908;8.126;2023-07-30T05:49:42;3.05;;;1.70;;
81396;SDS011;70852;49.908;8.126;2023-07-30T05:52:10;2.80;;;1.50;;
81396;SDS011;70852;49.908;8.126;2023-07-30T05:54:35;2.22;;;1.30;;
81396;SDS011;70852;49.908;8.126;2023-07-30T05:57:00;3.83;;;1.50;;
81396;SDS011;70852;49.908;8.126;2023-07-30T05:59:26;3.80;;;1.38;;
81396;SDS011;70852;49.908;8.126;2023-07-30T06:01:51;4.22;;;2.00;;
81396;SDS011;70852;49.908;8.126;2023-07-30T06:04:17;2.60;;;1.63;;
81396;SDS011;70852;49.908;8.126;2023-07-30T06:06:44;2.63;;;1.38;;
81396;SDS011;70852;49.908;8.126;2023-07-30T06:09:10;3.85;;;1.83;;
81396;SDS011;70852;49.908;8.126;2023-07-30T06:11:37;2.85;;;1.58;;
81396;SDS011;70852;49.908;8.126;2023-07-30T06:14:07;2.50;;;1.30;;
81396;SDS011;70852;49.908;8.126;2023-07-30T06:16:35;3.40;;;1.50;;
81396;SDS011;70852;49.908;8.126;2023-07-30T06:19:05;2.90;;;1.60;;
81396;SDS011;70852;49.908;8.126;2023-07-30T06:21:33;3.00;;;1.42;;
81396;SDS011;70852;49.908;8.126;2023-07-30T06:24:03;4.35;;;1.40;;
81396;SDS011;70852;49.908;8.126;2023-07-30T06:26:30;5.13;;;1.40;;
81396;SDS011;70852;49.908;8.126;2023-07-30T06:28:58;2.42;;;1.33;;
81396;SDS011;70852;49.908;8.126;2023-07-30T06:31:26;2.45;;;1.23;;
81396;SDS011;70852;49.908;8.126;2023-07-30T06:33:54;3.20;;;1.42;;
81396;SDS011;70852;49.908;8.126;2023-07-30T06:36:19;2.75;;;1.30;;
81396;SDS011;70852;49.908;8.126;2023-07-30T06:38:46;3.03;;;1.30;;
81396;SDS011;70852;49.908;8.126;2023-07-30T06:41:12;2.53;;;1.42;;
81396;SDS011;70852;49.908;8.126;2023-07-30T06:43:37;2.92;;;1.50;;
81396;SDS011;70852;49.908;8.126;2023-07-30T06:46:02;3.72;;;1.55;;
81396;SDS011;70852;49.908;8.126;2023-07-30T06:48:32;4.28;;;1.52;;
81396;SDS011;70852;49.908;8.126;2023-07-30T06:51:00;3.28;;;1.50;;
81396;SDS011;70852;49.908;8.126;2023-07-30T06:53:25;4.45;;;1.67;;
81396;SDS011;70852;49.908;8.126;2023-07-30T06:55:50;9.57;;;2.00;;
81396;SDS011;70852;49.908;8.126;2023-07-30T06:58:15;4.03;;;1.73;;
81396;SDS011;70852;49.908;8.126;2023-07-30T07:00:43;4.82;;;1.67;;
81396;SDS011;70852;49.908;8.126;2023-07-30T07:03:08;6.53;;;1.77;;
81396;SDS011;70852;49.908;8.126;2023-07-30T07:05:36;5.90;;;1.92;;
81396;SDS011;70852;49.908;8.126;2023-07-30T07:08:04;4.03;;;1.80;;
81396;SDS011;70852;49.908;8.126;2023-07-30T07:10:34;5.03;;;2.15;;
81396;SDS011;70852;49.908;8.126;2023-07-30T07:12:59;4.75;;;1.83;;
81396;SDS011;70852;49.908;8.126;2023-07-30T07:15:24;4.32;;;1.98;;
81396;SDS011;70852;49.908;8.126;2023-07-30T07:17:52;4.25;;;2.35;;
81396;SDS011;70852;49.908;8.126;2023-07-30T07:20:17;5.28;;;1.73;;
81396;SDS011;70852;49.908;8.126;2023-07-30T07:22:48;3.05;;;1.80;;
81396;SDS011;70852;49.908;8.126;2023-07-30T07:25:18;4.28;;;1.88;;
81396;SDS011;70852;49.908;8.126;2023-07-30T07:27:44;3.00;;;1.88;;
81396;SDS011;70852;49.908;8.126;2023-07-30T07:30:10;3.28;;;1.75;;
81396;SDS011;70852;49.908;8.126;2023-07-30T07:32:37;3.70;;;2.17;;
81396;SDS011;70852;49.908;8.126;2023-07-30T07:35:04;3.97;;;2.30;;
81396;SDS011;70852;49.908;8.126;2023-07-30T07:37:31;3.72;;;2.03;;
81396;SDS011;70852;49.908;8.126;2023-07-30T07:39:59;5.05;;;2.40;;
81396;SDS011;70852;49.908;8.126;2023-07-30T07:42:24;3.75;;;1.77;;
81396;SDS011;70852;49.908;8.126;2023-07-30T07:44:54;4.07;;;2.22;;
81396;SDS011;70852;49.908;8.126;2023-07-30T07:47:22;5.20;;;2.22;;
81396;SDS011;70852;49.908;8.126;2023-07-30T07:49:49;3.85;;;2.30;;
81396;SDS011;70852;49.908;8.126;2023-07-30T07:52:17;3.67;;;2.30;;
81396;SDS011;70852;49.908;8.126;2023-07-30T07:54:45;4.80;;;2.67;;
81396;SDS011;70852;49.908;8.126;2023-07-30T07:57:11;4.07;;;2.40;;
81396;SDS011;70852;49.908;8.126;2023-07-30T07:59:36;6.15;;;2.70;;
81396;SDS011;70852;49.908;8.126;2023-07-30T08:02:06;3.88;;;2.53;;
81396;SDS011;70852;49.908;8.126;2023-07-30T08:04:34;4.32;;;2.72;;
81396;SDS011;70852;49.908;8.126;2023-07-30T08:07:02;6.70;;;2.80;;
81396;SDS011;70852;49.908;8.126;2023-07-30T08:09:30;5.47;;;3.00;;
81396;SDS011;70852;49.908;8.126;2023-07-30T08:11:56;3.75;;;2.60;;
81396;SDS011;70852;49.908;8.126;2023-07-30T08:14:25;4.53;;;2.60;;
81396;SDS011;70852;49.908;8.126;2023-07-30T08:16:51;4.55;;;2.63;;
81396;SDS011;70852;49.908;8.126;2023-07-30T08:19:16;4.03;;;2.75;;
81396;SDS011;70852;49.908;8.126;2023-07-30T08:21:44;4.45;;;3.15;;
81396;SDS011;70852;49.908;8.126;2023-07-30T08:24:09;5.10;;;2.90;;
81396;SDS011;70852;49.908;8.126;2023-07-30T08:26:39;4.20;;;2.92;;
81396;SDS011;70852;49.908;8.126;2023-07-30T08:29:08;7.35;;;2.85;;
81396;SDS011;70852;49.908;8.126;2023-07-30T08:31:35;5.13;;;2.40;;
81396;SDS011;70852;49.908;8.126;2023-07-30T08:34:02;5.47;;;2.45;;
81396;SDS011;70852;49.908;8.126;2023-07-30T08:36:32;5.55;;;2.85;;
81396;SDS011;70852;49.908;8.126;2023-07-30T08:39:00;4.82;;;2.95;;
81396;SDS011;70852;49.908;8.126;2023-07-30T08:41:29;3.63;;;2.60;;
81396;SDS011;70852;49.908;8.126;2023-07-30T08:44:04;3.83;;;2.67;;
81396;SDS011;70852;49.908;8.126;2023-07-30T08:46:32;3.65;;;2.42;;
81396;SDS011;70852;49.908;8.126;2023-07-30T08:48:57;4.05;;;2.13;;
81396;SDS011;70852;49.908;8.126;2023-07-30T08:51:25;11.90;;;2.90;;
81396;SDS011;70852;49.908;8.126;2023-07-30T08:53:53;9.32;;;2.38;;
81396;SDS011;70852;49.908;8.126;2023-07-30T08:56:23;4.57;;;1.40;;
81396;SDS011;70852;49.908;8.126;2023-07-30T08:58:48;4.18;;;1.33;;
81396;SDS011;70852;49.908;8.126;2023-07-30T09:01:16;2.67;;;1.33;;
81396;SDS011;70852;49.908;8.126;2023-07-30T09:03:43;3.45;;;1.00;;
81396;SDS011;70852;49.908;8.126;2023-07-30T09:06:13;1.67;;;0.80;;
81396;SDS011;70852;49.908;8.126;2023-07-30T09:08:38;2.17;;;0.52;;
81396;SDS011;70852;49.908;8.126;2023-07-30T09:11:06;0.95;;;0.50;;
81396;SDS011;70852;49.908;8.126;2023-07-30T09:13:38;0.82;;;0.40;;
81396;SDS011;70852;49.908;8.126;2023-07-30T09:16:11;1.15;;;0.60;;
81396;SDS011;70852;49.908;8.126;2023-07-30T09:21:14;0.82;;;0.50;;
81396;SDS011;70852;49.908;8.126;2023-07-30T09:23:43;0.90;;;0.40;;
81396;SDS011;70852;49.908;8.126;2023-07-30T09:26:09;1.20;;;0.50;;
81396;SDS011;70852;49.908;8.126;2023-07-30T09:28:35;2.10;;;0.70;;
81396;SDS011;70852;49.908;8.126;2023-07-30T09:31:01;1.27;;;0.52;;
81396;SDS011;70852;49.908;8.126;2023-07-30T09:33:28;1.27;;;0.50;;
81396;SDS011;70852;49.908;8.126;2023-07-30T09:35:54;1.58;;;0.73;;
81396;SDS011;70852;49.908;8.126;2023-07-30T09:38:21;1.20;;;0.55;;
81396;SDS011;70852;49.908;8.126;2023-07-30T09:40:50;1.02;;;0.60;;
81396;SDS011;70852;49.908;8.126;2023-07-30T09:43:17;3.17;;;0.90;;
81396;SDS011;70852;49.908;8.126;2023-07-30T09:45:45;1.13;;;0.60;;
81396;SDS011;70852;49.908;8.126;2023-07-30T09:48:13;3.70;;;0.73;;
81396;SDS011;70852;49.908;8.126;2023-07-30T09:50:41;1.85;;;0.60;;
81396;SDS011;70852;49.908;8.126;2023-07-30T09:53:10;1.88;;;0.98;;
81396;SDS011;70852;49.908;8.126;2023-07-30T09:55:38;2.15;;;0.80;;
81396;SDS011;70852;49.908;8.126;2023-07-30T09:58:03;3.03;;;0.75;;
81396;SDS011;70852;49.908;8.126;2023-07-30T10:00:29;1.98;;;0.82;;
81396;SDS011;70852;49.908;8.126;2023-07-30T10:02:55;2.10;;;1.33;;
81396;SDS011;70852;49.908;8.126;2023-07-30T10:05:23;2.70;;;1.02;;
81396;SDS011;70852;49.908;8.126;2023-07-30T10:07:56;2.50;;;1.30;;
81396;SDS011;70852;49.908;8.126;2023-07-30T10:10:28;3.50;;;1.40;;
81396;SDS011;70852;49.908;8.126;2023-07-30T10:13:00;3.70;;;1.38;;
81396;SDS011;70852;49.908;8.126;2023-07-30T10:15:30;3.17;;;1.73;;
81396;SDS011;70852;49.908;8.126;2023-07-30T10:18:01;4.03;;;2.00;;
81396;SDS011;70852;49.908;8.126;2023-07-30T10:20:30;2.65;;;1.98;;
81396;SDS011;70852;49.908;8.126;2023-07-30T10:25:29;3.50;;;1.92;;
81396;SDS011;70852;49.908;8.126;2023-07-30T10:31:11;4.60;;;1.95;;
81396;SDS011;70852;49.908;8.126;2023-07-30T10:33:46;5.07;;;1.85;;
81396;SDS011;70852;49.908;8.126;2023-07-30T10:36:16;3.33;;;1.85;;
81396;SDS011;70852;49.908;8.126;2023-07-30T10:38:45;3.28;;;1.80;;
81396;SDS011;70852;49.908;8.126;2023-07-30T10:41:15;3.22;;;1.35;;
81396;SDS011;70852;49.908;8.126;2023-07-30T10:43:49;4.35;;;1.63;;
81396;SDS011;70852;49.908;8.126;2023-07-30T10:46:21;3.83;;;1.20;;
81396;SDS011;70852;49.908;8.126;2023-07-30T10:48:47;3.00;;;1.05;;
81396;SDS011;70852;49.908;8.126;2023-07-30T10:51:15;4.10;;;1.27;;
81396;SDS011;70852;49.908;8.126;2023-07-30T10:53:44;2.70;;;1.13;;
81396;SDS011;70852;49.908;8.126;2023-07-30T10:56:15;4.05;;;1.30;;
81396;SDS011;70852;49.908;8.126;2023-07-30T10:58:41;3.42;;;1.17;;
81396;SDS011;70852;49.908;8.126;2023-07-30T11:01:08;3.03;;;1.15;;
81396;SDS011;70852;49.908;8.126;2023-07-30T11:03:38;4.10;;;1.52;;
81396;SDS011;70852;49.908;8.126;2023-07-30T11:06:04;3.83;;;1.20;;
81396;SDS011;70852;49.908;8.126;2023-07-30T11:08:39;4.30;;;1.20;;
81396;SDS011;70852;49.908;8.126;2023-07-30T11:11:10;3.58;;;1.33;;
81396;SDS011;70852;49.908;8.126;2023-07-30T11:13:39;5.07;;;1.17;;
81396;SDS011;70852;49.908;8.126;2023-07-30T11:16:11;3.17;;;1.02;;
81396;SDS011;70852;49.908;8.126;2023-07-30T11:18:39;4.20;;;1.13;;
81396;SDS011;70852;49.908;8.126;2023-07-30T11:21:09;3.80;;;1.23;;
81396;SDS011;70852;49.908;8.126;2023-07-30T11:23:40;5.18;;;1.20;;
81396;SDS011;70852;49.908;8.126;2023-07-30T11:26:12;3.92;;;1.83;;
81396;SDS011;70852;49.908;8.126;2023-07-30T11:28:44;2.88;;;1.00;;
81396;SDS011;70852;49.908;8.126;2023-07-30T11:31:13;3.97;;;1.17;;
81396;SDS011;70852;49.908;8.126;2023-07-30T11:33:45;3.25;;;1.10;;
81396;SDS011;70852;49.908;8.126;2023-07-30T11:36:17;3.58;;;1.05;;
81396;SDS011;70852;49.908;8.126;2023-07-30T11:38:47;3.75;;;1.10;;
81396;SDS011;70852;49.908;8.126;2023-07-30T11:41:17;2.90;;;1.25;;
81396;SDS011;70852;49.908;8.126;2023-07-30T11:43:46;5.35;;;1.30;;
81396;SDS011;70852;49.908;8.126;2023-07-30T11:46:13;4.65;;;1.42;;
81396;SDS011;70852;49.908;8.126;2023-07-30T11:48:45;3.63;;;1.15;;
81396;SDS011;70852;49.908;8.126;2023-07-30T11:51:24;2.70;;;1.30;;
81396;SDS011;70852;49.908;8.126;2023-07-30T11:53:52;5.13;;;1.33;;
81396;SDS011;70852;49.908;8.126;2023-07-30T11:56:33;4.25;;;1.30;;
81396;SDS011;70852;49.908;8.126;2023-07-30T11:59:00;4.32;;;1.02;;
81396;SDS011;70852;49.908;8.126;2023-07-30T12:01:30;3.00;;;1.17;;
81396;SDS011;70852;49.908;8.126;2023-07-30T12:03:56;3.55;;;1.38;;
81396;SDS011;70852;49.908;8.126;2023-07-30T12:09:13;3.22;;;1.52;;
81396;SDS011;70852;49.908;8.126;2023-07-30T12:14:14;4.40;;;1.23;;
81396;SDS011;70852;49.908;8.126;2023-07-30T12:16:40;2.33;;;1.20;;
81396;SDS011;70852;49.908;8.126;2023-07-30T12:19:07;3.17;;;1.25;;
81396;SDS011;70852;49.908;8.126;2023-07-30T12:21:33;3.50;;;1.58;;
81396;SDS011;70852;49.908;8.126;2023-07-30T12:23:58;4.30;;;1.35;;
81396;SDS011;70852;49.908;8.126;2023-07-30T12:26:26;4.68;;;1.63;;
81396;SDS011;70852;49.908;8.126;2023-07-30T12:28:51;3.67;;;1.42;;
81396;SDS011;70852;49.908;8.126;2023-07-30T12:31:16;3.00;;;1.10;;
81396;SDS011;70852;49.908;8.126;2023-07-30T12:33:44;3.85;;;1.10;;
81396;SDS011;70852;49.908;8.126;2023-07-30T12:36:11;5.15;;;1.27;;
81396;SDS011;70852;49.908;8.126;2023-07-30T12:38:37;3.88;;;1.10;;
81396;SDS011;70852;49.908;8.126;2023-07-30T12:41:02;3.08;;;1.23;;
81396;SDS011;70852;49.908;8.126;2023-07-30T12:43:27;3.53;;;1.33;;
81396;SDS011;70852;49.908;8.126;2023-07-30T12:45:55;5.22;;;1.10;;
81396;SDS011;70852;49.908;8.126;2023-07-30T12:48:20;5.45;;;1.50;;
81396;SDS011;70852;49.908;8.126;2023-07-30T12:50:45;3.05;;;1.33;;
81396;SDS011;70852;49.908;8.126;2023-07-30T12:53:10;3.13;;;1.38;;
81396;SDS011;70852;49.908;8.126;2023-07-30T12:55:36;3.55;;;1.20;;
81396;SDS011;70852;49.908;8.126;2023-07-30T12:58:03;6.47;;;1.27;;
81396;SDS011;70852;49.908;8.126;2023-07-30T13:00:28;5.28;;;1.52;;
81396;SDS011;70852;49.908;8.126;2023-07-30T13:02:53;5.00;;;1.52;;
81396;SDS011;70852;49.908;8.126;2023-07-30T13:05:21;6.35;;;1.55;;
81396;SDS011;70852;49.908;8.126;2023-07-30T13:07:46;8.93;;;1.30;;
81396;SDS011;70852;49.908;8.126;2023-07-30T13:10:12;4.50;;;1.33;;
81396;SDS011;70852;49.908;8.126;2023-07-30T13:12:40;3.05;;;1.38;;
81396;SDS011;70852;49.908;8.126;2023-07-30T13:15:05;6.90;;;1.35;;
81396;SDS011;70852;49.908;8.126;2023-07-30T13:17:31;5.10;;;1.25;;
81396;SDS011;70852;49.908;8.126;2023-07-30T13:20:01;3.95;;;1.30;;
81396;SDS011;70852;49.908;8.126;2023-07-30T13:22:29;4.20;;;1.30;;
81396;SDS011;70852;49.908;8.126;2023-07-30T13:24:57;5.43;;;1.23;;
81396;SDS011;70852;49.908;8.126;2023-07-30T13:27:26;3.55;;;1.20;;
81396;SDS011;70852;49.908;8.126;2023-07-30T13:29:54;3.53;;;1.52;;
81396;SDS011;70852;49.908;8.126;2023-07-30T13:32:22;5.05;;;1.20;;
81396;SDS011;70852;49.908;8.126;2023-07-30T13:34:47;4.72;;;1.33;;
81396;SDS011;70852;49.908;8.126;2023-07-30T13:37:15;3.92;;;1.30;;
81396;SDS011;70852;49.908;8.126;2023-07-30T13:39:45;3.97;;;1.27;;
81396;SDS011;70852;49.908;8.126;2023-07-30T13:42:13;5.32;;;1.30;;
81396;SDS011;70852;49.908;8.126;2023-07-30T13:44:40;3.60;;;1.20;;
81396;SDS011;70852;49.908;8.126;2023-07-30T13:47:08;3.85;;;1.10;;
81396;SDS011;70852;49.908;8.126;2023-07-30T13:49:36;4.65;;;1.48;;
81396;SDS011;70852;49.908;8.126;2023-07-30T13:52:04;3.22;;;1.48;;
81396;SDS011;70852;49.908;8.126;2023-07-30T13:54:30;4.75;;;1.20;;
81396;SDS011;70852;49.908;8.126;2023-07-30T13:56:57;3.75;;;1.27;;
81396;SDS011;70852;49.908;8.126;2023-07-30T13:59:23;6.00;;;1.55;;
81396;SDS011;70852;49.908;8.126;2023-07-30T14:01:48;4.55;;;1.10;;
81396;SDS011;70852;49.908;8.126;2023-07-30T14:04:13;4.47;;;1.38;;
81396;SDS011;70852;49.908;8.126;2023-07-30T14:06:39;3.90;;;1.23;;
81396;SDS011;70852;49.908;8.126;2023-07-30T14:09:04;5.78;;;2.10;;
81396;SDS011;70852;49.908;8.126;2023-07-30T14:11:29;5.55;;;1.70;;
81396;SDS011;70852;49.908;8.126;2023-07-30T14:13:55;5.53;;;1.60;;
81396;SDS011;70852;49.908;8.126;2023-07-30T14:16:23;4.38;;;1.20;;
81396;SDS011;70852;49.908;8.126;2023-07-30T14:18:48;4.47;;;1.13;;
81396;SDS011;70852;49.908;8.126;2023-07-30T14:21:16;6.78;;;1.38;;
81396;SDS011;70852;49.908;8.126;2023-07-30T14:23:44;3.40;;;1.33;;
81396;SDS011;70852;49.908;8.126;2023-07-30T14:26:12;3.58;;;1.15;;
81396;SDS011;70852;49.908;8.126;2023-07-30T14:28:37;3.90;;;1.52;;
81396;SDS011;70852;49.908;8.126;2023-07-30T14:31:02;4.75;;;1.42;;
81396;SDS011;70852;49.908;8.126;2023-07-30T14:33:30;3.70;;;1.35;;
81396;SDS011;70852;49.908;8.126;2023-07-30T14:35:55;3.63;;;1.58;;
81396;SDS011;70852;49.908;8.126;2023-07-30T14:38:21;2.78;;;1.42;;
81396;SDS011;70852;49.908;8.126;2023-07-30T14:40:46;3.90;;;1.60;;
81396;SDS011;70852;49.908;8.126;2023-07-30T14:43:11;2.47;;;1.00;;
81396;SDS011;70852;49.908;8.126;2023-07-30T14:45:39;5.95;;;1.20;;
81396;SDS011;70852;49.908;8.126;2023-07-30T14:48:04;3.47;;;1.10;;
81396;SDS011;70852;49.908;8.126;2023-07-30T14:50:30;4.20;;;1.45;;
81396;SDS011;70852;49.908;8.126;2023-07-30T14:52:57;4.53;;;1.30;;
81396;SDS011;70852;49.908;8.126;2023-07-30T14:55:22;4.13;;;1.45;;
81396;SDS011;70852;49.908;8.126;2023-07-30T14:57:48;4.93;;;1.70;;
81396;SDS011;70852;49.908;8.126;2023-07-30T15:00:18;4.10;;;1.33;;
81396;SDS011;70852;49.908;8.126;2023-07-30T15:02:46;4.53;;;1.27;;
81396;SDS011;70852;49.908;8.126;2023-07-30T15:05:11;4.05;;;1.25;;
81396;SDS011;70852;49.908;8.126;2023-07-30T15:07:39;4.07;;;1.75;;